Radom, Illinois
Current Conditions -  °F | °C
As of 1:15 PM on Monday 20 Oct 2014 (Local Time) from KENL Reporting Station
Clear Clear  
Wind Chill: 71°   Ceiling: Unl
Heat Index: 71°   Visibility: 7mi
Dew Point: 50°   Wind: 10mph
Humidity: 48%   Direction: 270°W
Pressure: 29.93"   Gusts: NA
Location:  38.28°N, 89.19°W
Report Text: KENL 201815Z AUTO 27009KT 7SM CLR 22/10 A2993 RMK AO2 T02160102
Loading
Personal Weather Stations






























Interactive Weather Map
Tropical Storm Tracking
New forecast layout! Learn more

10-Day Weather Forecast

Advertisements
Track Severe Weather on mobile